Airfield :
LOGIN :

Register | Disclaimer

   EN    FR    IT 

 










Legend :    VFR   Marginal VFR   IFR   Intensive IFR   Very Intensive IFR
Visi :
Ceiling :
>= 8 km
>= 3000ft
5 to 8 km
1000 to 3000 ft
1500m to 5 km
500 to 1000 ft
800 to 1500m
200 to 500 ft
< 800m
< 200 ft
Symbols :   Thunderstorms  Fog  Heavy snow  Heavy precipitations  Wind > 20 kt
SIGMETs :     Misc.  Thunderstorms  Icing  Turbulence  Mountain Waves  Volcanic Ashes







- Airport Elevation : 265 ft
- Download approach charts


LFMC - Le Luc

CURRENT METAR :
  • 241730Z AUTO 09011KT CAVOK 17/09 Q1018

EXPIRED METARs :
  • 241700Z AUTO 09013KT CAVOK 17/09 Q1018
  • 241630Z AUTO 09013KT 060V120 CAVOK 17/09 Q1018
  • 241600Z AUTO 09012KT CAVOK 17/09 Q1018
  • 241530Z AUTO 09014KT CAVOK 17/09 Q1018
  • 241500Z AUTO 09010KT CAVOK 17/09 Q1018

TAF N/A
No reported NOTAMs for that airfield.
3 SIGMETs reported for the Marseille FIR (LFMM) :
 
Severe turbulence
LFMM SIGMET 5 VALID 241900/242100 LFPW
LFMM MARSEILLE FIR/UIR SEV TURB FCST WI N4345 E00730 - N4330 E00830 - N4245 E00830 - N4215 E00430 - N4315 E00345 SFC/FL060 STNR NC=
Severe turbulence
LFMM SIGMET 4 VALID 241800/242100 LFPW
LFMM MARSEILLE FIR/UIR SEV TURB FCST WI N4000 E00800 - N3900 E00800 - N3900 E00515 - N4015 E00600 SFC/FL060 MOV NW 15KT NC=
Severe turbulence
LFMM SIGMET 3 VALID 241500/241900 LFPW
LFMM MARSEILLE FIR/UIR SEV TURB FCST WI N4300 E00815 - N4215 E00400 - N4315 E00345 - N4400 E00545 SFC/FL060 MOV W 15KT NC=



MET'MAP, your aeronautical weather chart ! - Copyright ORBIFLY December 2007 - Disclaimer

ORBIFLY MET'MAP TEAM :

Programming & Development : Alexandra Zaïnal
Concept & Development : Baudouin d'Aumeries
Co-Development & Prog : Marc-Olivier Méhu
Technical & hardware support : Manuel Goepfert

Contact : metmap@orbifly.com




SOURCES & CREDITS :

   NOAA